Mineral Faith — VRKS4 — position and weather

sailwx.info

Track history (hours):
 
Tides and Currents Weather Stations Pressure Air Temp Water Temp Dewpoint Dewpoint Depression Visibility Wind Speed Wind Dir Waves Ship Positions

Mineral Faith

Last reported at 2016-May-26 06:20 UTC. Time now 2016-May-26 12:41 UTC.
Position N 51°28' W 004°05'.

Length 292 m; draft 16.7 m.

Type: Cargo ship. MMSI: 477947500.

Date/timePositionNaut miles runAvg speedWind from/ knotsBaromVisibWave heightAir tempDewpointWater temp
2016-May-26 06:20N 51°28' W 004°05'15 8.1
2016-May-26 04:31N 51°29' W 004°28'1211.9
2016-May-26 03:33N 51°29' W 004°47'147 8.6
2016-May-25 10:31N 53°55' W 005°14'1111.5
2016-May-25 09:33N 54°06' W 005°13'1212.1
2016-May-25 08:34N 54°18' W 005°11'1313.3
2016-May-25 07:34N 54°31' W 005°12'1211.9
2016-May-25 06:33N 54°43' W 005°18'1010.3
2016-May-25 05:34N 54°51' W 005°28'10 9.5
2016-May-25 04:34N 54°59' W 005°38'17 8.7
2016-May-25 02:34N 55°13' W 005°55'9 9.2
2016-May-25 01:33N 55°20' W 006°05'1010.1
2016-May-25 00:33N 55°23' W 006°22'1212.0
2016-May-24 23:34N 55°32' W 006°36'1313.3
2016-May-24 22:33N 55°43' W 006°51'1313.0
2016-May-24 21:33N 55°53' W 007°05'  
2016-May-21 04:09N 67°49' E 013°51'711.7
2016-May-21 03:32N 67°54' E 014°05'  
Track history (hours):
 
Tides and Currents Weather Stations Pressure Air Temp Water Temp Dewpoint Dewpoint Depression Visibility Wind Speed Wind Dir Waves Ship Positions

Mineral Faith

Last reported at 2016-May-26 06:20 UTC. Time now 2016-May-26 12:41 UTC.
Position N 51°28' W 004°05'.

Length 292 m; draft 16.7 m.

Type: Cargo ship. MMSI: 477947500.

Date/timePositionNaut miles runAvg speedWind from/ knotsBaromVisibWave heightAir tempDewpointWater temp
2016-May-26 06:20N 51°28' W 004°05'15 8.1
2016-May-26 04:31N 51°29' W 004°28'1211.9
2016-May-26 03:33N 51°29' W 004°47'147 8.6
2016-May-25 10:31N 53°55' W 005°14'1111.5
2016-May-25 09:33N 54°06' W 005°13'1212.1
2016-May-25 08:34N 54°18' W 005°11'1313.3
2016-May-25 07:34N 54°31' W 005°12'1211.9
2016-May-25 06:33N 54°43' W 005°18'1010.3
2016-May-25 05:34N 54°51' W 005°28'10 9.5
2016-May-25 04:34N 54°59' W 005°38'17 8.7
2016-May-25 02:34N 55°13' W 005°55'9 9.2
2016-May-25 01:33N 55°20' W 006°05'1010.1
2016-May-25 00:33N 55°23' W 006°22'1212.0
2016-May-24 23:34N 55°32' W 006°36'1313.3
2016-May-24 22:33N 55°43' W 006°51'1313.0
2016-May-24 21:33N 55°53' W 007°05'  
2016-May-21 04:09N 67°49' E 013°51'711.7
2016-May-21 03:32N 67°54' E 014°05'  

Dump ship's entire track history